CheckWX is a tool to help pilots better visualize weather data.  It is not intended as a substitute for an official pre-flight weather briefing.

21:02:53 UTC

EPRZ METAR
Rzeszów-Jasionka Airport
Rzeszów, Poland
Current

33 mins ago

EPRZ 232030Z 32007KT 9999 SCT014TCU SCT024 15/14 Q1012
Observed
May-23 @ 20:30 UTC
Wind
  • 320° at 7 KTS
Visibility
10,000+ meters
Flight Rules
VFR
Cloud Levels
  • Scattered at 1,400' AGL
  • Scattered at 2,400' AGL
Temperature
15°C / 59°F
Dewpoint
14°C / 57°F
Humidity
94%
Altimeter
29.88" Hg
Pressure
1011.92 hPa
Previous

2 hours ago

EPRZ 231900Z 33006KT 9999 BKN008 FEW016TCU 15/14 Q1012
Observed
May-23 @ 19:00 UTC
Wind
  • 330° at 6 KTS
Visibility
10,000+ meters
Flight Rules
IFR
Cloud Levels
  • Broken at 800' AGL
  • Few at 1,600' AGL
Temperature
15°C / 59°F
Dewpoint
14°C / 57°F
Humidity
94%
Altimeter
29.88" Hg
Pressure
1011.92 hPa
Previous

3 hours ago

EPRZ 231830Z 29004KT 260V320 9999 BKN010 FEW015TCU 15/14 Q1011
Observed
May-23 @ 18:30 UTC
Wind
  • 290° at 4 KTS
Visibility
10,000+ meters
Flight Rules
MVFR
Cloud Levels
  • Broken at 1,000' AGL
  • Few at 1,500' AGL
Temperature
15°C / 59°F
Dewpoint
14°C / 57°F
Humidity
94%
Altimeter
29.85" Hg
Pressure
1010.92 hPa